sensor_id;sensor_type;location;lat;lon;timestamp;pressure;altitude;pressure_sealevel;temperature;humidity
14800;BME280;7491;57.750;11.970;2023-04-04T00:01:55;78647.47;;;-142.11;100.00
14800;BME280;7491;57.750;11.970;2023-04-04T00:04:21;78645.41;;;-142.11;100.00
14800;BME280;7491;57.750;11.970;2023-04-04T00:06:48;78643.38;;;-142.11;100.00
14800;BME280;7491;57.750;11.970;2023-04-04T00:09:17;78633.19;;;-142.11;100.00
14800;BME280;7491;57.750;11.970;2023-04-04T00:11:44;78629.09;;;-142.11;100.00
14800;BME280;7491;57.750;11.970;2023-04-04T00:14:11;78637.25;;;-142.11;100.00
14800;BME280;7491;57.750;11.970;2023-04-04T00:16:38;78635.22;;;-142.11;100.00
14800;BME280;7491;57.750;11.970;2023-04-04T00:19:05;78627.06;;;-142.11;100.00
14800;BME280;7491;57.750;11.970;2023-04-04T00:21:33;78620.94;;;-142.11;100.00
14800;BME280;7491;57.750;11.970;2023-04-04T00:24:00;78618.91;;;-142.11;100.00
14800;BME280;7491;57.750;11.970;2023-04-04T00:26:28;78625.03;;;-142.11;100.00
14800;BME280;7491;57.750;11.970;2023-04-04T00:28:54;78629.09;;;-142.11;100.00
14800;BME280;7491;57.750;11.970;2023-04-04T00:31:21;78629.09;;;-142.11;100.00
14800;BME280;7491;57.750;11.970;2023-04-04T00:33:48;78625.03;;;-142.11;100.00
14800;BME280;7491;57.750;11.970;2023-04-04T00:36:15;78631.16;;;-142.11;100.00
14800;BME280;7491;57.750;11.970;2023-04-04T00:38:41;78651.53;;;-142.11;100.00
14800;BME280;7491;57.750;11.970;2023-04-04T00:41:08;78641.34;;;-142.11;100.00
14800;BME280;7491;57.750;11.970;2023-04-04T00:43:36;78635.22;;;-142.11;100.00
14800;BME280;7491;57.750;11.970;2023-04-04T00:46:03;78618.91;;;-142.11;100.00
14800;BME280;7491;57.750;11.970;2023-04-04T00:48:30;78616.88;;;-142.11;100.00
14800;BME280;7491;57.750;11.970;2023-04-04T00:50:57;78610.75;;;-142.11;100.00
14800;BME280;7491;57.750;11.970;2023-04-04T00:53:24;78606.66;;;-142.11;100.00
14800;BME280;7491;57.750;11.970;2023-04-04T00:55:50;78598.50;;;-142.11;100.00
14800;BME280;7491;57.750;11.970;2023-04-04T00:58:17;78606.66;;;-142.11;100.00
14800;BME280;7491;57.750;11.970;2023-04-04T01:00:45;78612.78;;;-142.11;100.00
14800;BME280;7491;57.750;11.970;2023-04-04T01:03:12;78602.59;;;-142.11;100.00
14800;BME280;7491;57.750;11.970;2023-04-04T01:05:39;78608.69;;;-142.11;100.00
14800;BME280;7491;57.750;11.970;2023-04-04T01:08:06;78604.63;;;-142.11;100.00
14800;BME280;7491;57.750;11.970;2023-04-04T01:10:32;78592.38;;;-142.11;100.00
14800;BME280;7491;57.750;11.970;2023-04-04T01:13:00;78596.47;;;-142.11;100.00
14800;BME280;7491;57.750;11.970;2023-04-04T01:15:26;78590.34;;;-142.11;100.00
14800;BME280;7491;57.750;11.970;2023-04-04T01:17:57;78588.31;;;-142.11;100.00
14800;BME280;7491;57.750;11.970;2023-04-04T01:20:25;78606.66;;;-142.11;100.00
14800;BME280;7491;57.750;11.970;2023-04-04T01:22:55;78604.63;;;-142.11;100.00
14800;BME280;7491;57.750;11.970;2023-04-04T01:25:27;78606.66;;;-142.11;100.00
14800;BME280;7491;57.750;11.970;2023-04-04T01:27:56;78600.53;;;-142.11;100.00
14800;BME280;7491;57.750;11.970;2023-04-04T01:30:24;78592.38;;;-142.11;100.00
14800;BME280;7491;57.750;11.970;2023-04-04T01:32:56;78590.34;;;-142.11;100.00
14800;BME280;7491;57.750;11.970;2023-04-04T01:35:29;78574.03;;;-142.11;100.00
14800;BME280;7491;57.750;11.970;2023-04-04T01:38:07;78574.03;;;-142.11;100.00
14800;BME280;7491;57.750;11.970;2023-04-04T01:40:43;78574.03;;;-142.11;100.00
14800;BME280;7491;57.750;11.970;2023-04-04T01:43:13;78574.03;;;-142.11;100.00
14800;BME280;7491;57.750;11.970;2023-04-04T01:45:39;78569.94;;;-142.11;100.00
14800;BME280;7491;57.750;11.970;2023-04-04T01:48:06;78563.81;;;-142.11;100.00
14800;BME280;7491;57.750;11.970;2023-04-04T01:50:35;78559.75;;;-142.11;100.00
14800;BME280;7491;57.750;11.970;2023-04-04T01:53:02;78567.91;;;-142.11;100.00
14800;BME280;7491;57.750;11.970;2023-04-04T01:55:28;78576.06;;;-142.11;100.00
14800;BME280;7491;57.750;11.970;2023-04-04T01:57:56;78561.78;;;-142.11;100.00
14800;BME280;7491;57.750;11.970;2023-04-04T02:00:23;78571.97;;;-142.11;100.00
14800;BME280;7491;57.750;11.970;2023-04-04T02:02:50;78576.06;;;-142.11;100.00
14800;BME280;7491;57.750;11.970;2023-04-04T02:05:16;78576.06;;;-142.11;100.00
14800;BME280;7491;57.750;11.970;2023-04-04T02:07:46;78576.06;;;-142.11;100.00
14800;BME280;7491;57.750;11.970;2023-04-04T02:10:13;78582.19;;;-142.11;100.00
14800;BME280;7491;57.750;11.970;2023-04-04T02:12:39;78565.88;;;-142.11;100.00
14800;BME280;7491;57.750;11.970;2023-04-04T02:15:08;78559.75;;;-142.11;100.00
14800;BME280;7491;57.750;11.970;2023-04-04T02:17:35;78559.75;;;-142.11;100.00
14800;BME280;7491;57.750;11.970;2023-04-04T02:20:02;78557.69;;;-142.11;100.00
14800;BME280;7491;57.750;11.970;2023-04-04T02:22:29;78545.47;;;-142.11;100.00
14800;BME280;7491;57.750;11.970;2023-04-04T02:24:56;78533.22;;;-142.11;100.00
14800;BME280;7491;57.750;11.970;2023-04-04T02:27:24;78531.19;;;-142.11;100.00
14800;BME280;7491;57.750;11.970;2023-04-04T02:29:51;78559.75;;;-142.11;100.00
14800;BME280;7491;57.750;11.970;2023-04-04T02:32:21;78571.97;;;-142.11;100.00
14800;BME280;7491;57.750;11.970;2023-04-04T02:34:48;78571.97;;;-142.11;100.00
14800;BME280;7491;57.750;11.970;2023-04-04T02:37:15;78555.66;;;-142.11;100.00
14800;BME280;7491;57.750;11.970;2023-04-04T02:39:42;78547.50;;;-142.11;100.00
14800;BME280;7491;57.750;11.970;2023-04-04T02:42:08;78537.31;;;-142.11;100.00
14800;BME280;7491;57.750;11.970;2023-04-04T02:44:35;78531.19;;;-142.11;100.00
14800;BME280;7491;57.750;11.970;2023-04-04T02:47:02;78535.25;;;-142.11;100.00
14800;BME280;7491;57.750;11.970;2023-04-04T02:49:30;78533.22;;;-142.11;100.00
14800;BME280;7491;57.750;11.970;2023-04-04T02:51:56;78527.09;;;-142.11;100.00
14800;BME280;7491;57.750;11.970;2023-04-04T02:54:23;78521.00;;;-142.11;100.00
14800;BME280;7491;57.750;11.970;2023-04-04T02:56:49;78510.78;;;-142.11;100.00
14800;BME280;7491;57.750;11.970;2023-04-04T02:59:16;78512.81;;;-142.11;100.00
14800;BME280;7491;57.750;11.970;2023-04-04T03:01:43;78523.03;;;-142.11;100.00
14800;BME280;7491;57.750;11.970;2023-04-04T03:04:10;78535.25;;;-142.11;100.00
14800;BME280;7491;57.750;11.970;2023-04-04T03:06:39;78531.19;;;-142.11;100.00
14800;BME280;7491;57.750;11.970;2023-04-04T03:09:06;78523.03;;;-142.11;100.00
14800;BME280;7491;57.750;11.970;2023-04-04T03:11:33;78529.16;;;-142.11;100.00
14800;BME280;7491;57.750;11.970;2023-04-04T03:13:59;78529.16;;;-142.11;100.00
14800;BME280;7491;57.750;11.970;2023-04-04T03:16:26;78508.75;;;-142.11;100.00
14800;BME280;7491;57.750;11.970;2023-04-04T03:18:54;78516.91;;;-142.11;100.00
14800;BME280;7491;57.750;11.970;2023-04-04T03:21:21;78510.78;;;-142.11;100.00
14800;BME280;7491;57.750;11.970;2023-04-04T03:23:49;78506.72;;;-142.11;100.00
14800;BME280;7491;57.750;11.970;2023-04-04T03:26:15;78494.47;;;-142.11;100.00
14800;BME280;7491;57.750;11.970;2023-04-04T03:28:42;78502.63;;;-142.11;100.00
14800;BME280;7491;57.750;11.970;2023-04-04T03:31:09;78486.31;;;-142.11;100.00
14800;BME280;7491;57.750;11.970;2023-04-04T03:33:36;78482.22;;;-142.11;100.00
14800;BME280;7491;57.750;11.970;2023-04-04T03:36:03;78465.91;;;-142.11;100.00
14800;BME280;7491;57.750;11.970;2023-04-04T03:38:35;78457.75;;;-142.11;100.00
14800;BME280;7491;57.750;11.970;2023-04-04T03:41:04;78449.59;;;-142.11;100.00
14800;BME280;7491;57.750;11.970;2023-04-04T03:43:31;78451.63;;;-142.11;100.00
14800;BME280;7491;57.750;11.970;2023-04-04T03:45:59;78439.38;;;-142.11;100.00
14800;BME280;7491;57.750;11.970;2023-04-04T03:48:27;78435.31;;;-142.11;100.00
14800;BME280;7491;57.750;11.970;2023-04-04T03:50:55;78435.31;;;-142.11;100.00
14800;BME280;7491;57.750;11.970;2023-04-04T03:53:22;78439.38;;;-142.11;100.00
14800;BME280;7491;57.750;11.970;2023-04-04T03:55:48;78441.44;;;-142.11;100.00
14800;BME280;7491;57.750;11.970;2023-04-04T03:58:16;78445.50;;;-142.11;100.00
14800;BME280;7491;57.750;11.970;2023-04-04T04:00:43;78447.56;;;-142.11;100.00
14800;BME280;7491;57.750;11.970;2023-04-04T04:03:10;78437.34;;;-142.11;100.00
14800;BME280;7491;57.750;11.970;2023-04-04T04:05:36;78429.19;;;-142.11;100.00
14800;BME280;7491;57.750;11.970;2023-04-04T04:08:04;78414.91;;;-142.11;100.00
14800;BME280;7491;57.750;11.970;2023-04-04T04:10:31;78412.88;;;-142.11;100.00
14800;BME280;7491;57.750;11.970;2023-04-04T04:12:57;78404.72;;;-142.11;100.00
14800;BME280;7491;57.750;11.970;2023-04-04T04:15:25;78404.72;;;-142.11;100.00
14800;BME280;7491;57.750;11.970;2023-04-04T04:17:52;78404.72;;;-142.11;100.00
14800;BME280;7491;57.750;11.970;2023-04-04T04:20:19;78392.47;;;-142.11;100.00
14800;BME280;7491;57.750;11.970;2023-04-04T04:22:46;78392.47;;;-142.11;100.00
14800;BME280;7491;57.750;11.970;2023-04-04T04:25:12;78384.31;;;-142.11;100.00
14800;BME280;7491;57.750;11.970;2023-04-04T04:27:39;78378.19;;;-142.11;100.00
14800;BME280;7491;57.750;11.970;2023-04-04T04:30:07;78368.00;;;-142.11;100.00
14800;BME280;7491;57.750;11.970;2023-04-04T04:32:35;78363.91;;;-142.11;100.00
14800;BME280;7491;57.750;11.970;2023-04-04T04:35:03;78357.78;;;-142.11;100.00
14800;BME280;7491;57.750;11.970;2023-04-04T04:37:29;78353.72;;;-142.11;100.00
14800;BME280;7491;57.750;11.970;2023-04-04T04:39:56;78357.78;;;-142.11;100.00
14800;BME280;7491;57.750;11.970;2023-04-04T04:42:23;78351.69;;;-142.11;100.00
14800;BME280;7491;57.750;11.970;2023-04-04T04:44:50;78361.88;;;-142.11;100.00
14800;BME280;7491;57.750;11.970;2023-04-04T04:47:17;78372.06;;;-142.11;100.00
14800;BME280;7491;57.750;11.970;2023-04-04T04:49:45;78388.41;;;-142.11;100.00
14800;BME280;7491;57.750;11.970;2023-04-04T04:52:13;78382.28;;;-142.11;100.00
14800;BME280;7491;57.750;11.970;2023-04-04T04:54:40;78376.16;;;-142.11;100.00
14800;BME280;7491;57.750;11.970;2023-04-04T04:57:08;78382.28;;;-142.11;100.00
14800;BME280;7491;57.750;11.970;2023-04-04T04:59:34;78376.16;;;-142.11;100.00
14800;BME280;7491;57.750;11.970;2023-04-04T05:02:01;78376.16;;;-142.11;100.00
14800;BME280;7491;57.750;11.970;2023-04-04T05:04:28;78365.97;;;-142.11;100.00
14800;BME280;7491;57.750;11.970;2023-04-04T05:06:56;78363.91;;;-142.11;100.00
14800;BME280;7491;57.750;11.970;2023-04-04T05:09:23;78359.84;;;-142.11;100.00
14800;BME280;7491;57.750;11.970;2023-04-04T05:11:50;78361.88;;;-142.11;100.00
14800;BME280;7491;57.750;11.970;2023-04-04T05:14:16;78339.44;;;-142.11;100.00
14800;BME280;7491;57.750;11.970;2023-04-04T05:16:43;78335.34;;;-142.11;100.00
14800;BME280;7491;57.750;11.970;2023-04-04T05:19:09;78327.19;;;-142.11;100.00
14800;BME280;7491;57.750;11.970;2023-04-04T05:21:36;78341.47;;;-142.11;100.00
14800;BME280;7491;57.750;11.970;2023-04-04T05:24:05;78337.41;;;-142.11;100.00
14800;BME280;7491;57.750;11.970;2023-04-04T05:26:31;78335.34;;;-142.11;100.00
14800;BME280;7491;57.750;11.970;2023-04-04T05:28:58;78333.31;;;-142.11;100.00
14800;BME280;7491;57.750;11.970;2023-04-04T05:31:25;78335.34;;;-142.11;100.00
14800;BME280;7491;57.750;11.970;2023-04-04T05:33:51;78323.13;;;-142.11;100.00
14800;BME280;7491;57.750;11.970;2023-04-04T05:36:18;78325.16;;;-142.11;100.00
14800;BME280;7491;57.750;11.970;2023-04-04T05:38:44;78323.13;;;-142.11;100.00
14800;BME280;7491;57.750;11.970;2023-04-04T05:41:13;78308.84;;;-142.11;100.00
14800;BME280;7491;57.750;11.970;2023-04-04T05:43:40;78312.91;;;-142.11;100.00
14800;BME280;7491;57.750;11.970;2023-04-04T05:46:06;78312.91;;;-142.11;100.00
14800;BME280;7491;57.750;11.970;2023-04-04T05:48:33;78300.69;;;-142.11;100.00
14800;BME280;7491;57.750;11.970;2023-04-04T05:50:59;78304.75;;;-142.11;100.00
14800;BME280;7491;57.750;11.970;2023-04-04T05:53:26;78296.59;;;-142.11;100.00
14800;BME280;7491;57.750;11.970;2023-04-04T05:55:53;78298.66;;;-142.11;100.00
14800;BME280;7491;57.750;11.970;2023-04-04T05:58:21;78292.53;;;-142.11;100.00
14800;BME280;7491;57.750;11.970;2023-04-04T06:00:48;78321.09;;;-142.11;100.00
14800;BME280;7491;57.750;11.970;2023-04-04T06:03:15;78304.75;;;-142.11;100.00
14800;BME280;7491;57.750;11.970;2023-04-04T06:05:41;78294.56;;;-142.11;100.00
14800;BME280;7491;57.750;11.970;2023-04-04T06:08:09;78292.53;;;-142.11;100.00
14800;BME280;7491;57.750;11.970;2023-04-04T06:10:36;78274.16;;;-142.11;100.00
14800;BME280;7491;57.750;11.970;2023-04-04T06:13:02;78272.13;;;-142.11;100.00
14800;BME280;7491;57.750;11.970;2023-04-04T06:15:30;78255.81;;;-142.11;100.00
14800;BME280;7491;57.750;11.970;2023-04-04T06:17:57;78235.41;;;-142.11;100.00
14800;BME280;7491;57.750;11.970;2023-04-04T06:20:23;78229.28;;;-142.11;100.00
14800;BME280;7491;57.750;11.970;2023-04-04T06:22:50;78225.22;;;-142.11;100.00
14800;BME280;7491;57.750;11.970;2023-04-04T06:25:17;78210.94;;;-142.11;100.00
14800;BME280;7491;57.750;11.970;2023-04-04T06:27:44;78219.09;;;-142.11;100.00
14800;BME280;7491;57.750;11.970;2023-04-04T06:30:11;78225.22;;;-142.11;100.00
14800;BME280;7491;57.750;11.970;2023-04-04T06:32:42;78210.94;;;-142.11;100.00
14800;BME280;7491;57.750;11.970;2023-04-04T06:35:09;78196.66;;;-142.11;100.00
14800;BME280;7491;57.750;11.970;2023-04-04T06:37:35;78200.72;;;-142.11;100.00
14800;BME280;7491;57.750;11.970;2023-04-04T06:40:02;78206.84;;;-142.11;100.00
14800;BME280;7491;57.750;11.970;2023-04-04T06:42:29;78192.56;;;-142.11;100.00
14800;BME280;7491;57.750;11.970;2023-04-04T06:44:55;78196.66;;;-142.11;100.00
14800;BME280;7491;57.750;11.970;2023-04-04T06:47:22;78186.47;;;-142.11;100.00
14800;BME280;7491;57.750;11.970;2023-04-04T06:49:51;78184.41;;;-142.11;100.00
14800;BME280;7491;57.750;11.970;2023-04-04T06:52:18;78172.19;;;-142.11;100.00
14800;BME280;7491;57.750;11.970;2023-04-04T06:54:44;78172.19;;;-142.11;100.00
14800;BME280;7491;57.750;11.970;2023-04-04T06:57:11;78170.13;;;-142.11;100.00
14800;BME280;7491;57.750;11.970;2023-04-04T06:59:38;78166.06;;;-142.11;100.00
14800;BME280;7491;57.750;11.970;2023-04-04T07:02:04;78153.81;;;-142.11;100.00
14800;BME280;7491;57.750;11.970;2023-04-04T07:04:31;78137.50;;;-142.11;100.00
14800;BME280;7491;57.750;11.970;2023-04-04T07:07:00;78131.38;;;-142.11;100.00
14800;BME280;7491;57.750;11.970;2023-04-04T07:09:27;78127.31;;;-142.11;100.00
14800;BME280;7491;57.750;11.970;2023-04-04T07:11:53;78133.44;;;-142.11;100.00
14800;BME280;7491;57.750;11.970;2023-04-04T07:14:20;78117.09;;;-142.11;100.00
14800;BME280;7491;57.750;11.970;2023-04-04T07:16:49;78096.72;;;-142.11;100.00
14800;BME280;7491;57.750;11.970;2023-04-04T07:19:16;78086.50;;;-142.11;100.00
14800;BME280;7491;57.750;11.970;2023-04-04T07:21:42;78078.34;;;-142.11;100.00
14800;BME280;7491;57.750;11.970;2023-04-04T07:24:10;78076.31;;;-142.11;100.00
14800;BME280;7491;57.750;11.970;2023-04-04T07:26:37;78070.19;;;-142.11;100.00
14800;BME280;7491;57.750;11.970;2023-04-04T07:29:05;78070.19;;;-142.11;100.00
14800;BME280;7491;57.750;11.970;2023-04-04T07:31:32;78051.84;;;-142.11;100.00
14800;BME280;7491;57.750;11.970;2023-04-04T07:33:58;78051.84;;;-142.11;100.00
14800;BME280;7491;57.750;11.970;2023-04-04T07:36:25;78029.41;;;-142.11;100.00
14800;BME280;7491;57.750;11.970;2023-04-04T07:38:52;78023.28;;;-142.11;100.00
14800;BME280;7491;57.750;11.970;2023-04-04T07:41:20;78021.25;;;-142.11;100.00
14800;BME280;7491;57.750;11.970;2023-04-04T07:43:46;78023.28;;;-142.11;100.00
14800;BME280;7491;57.750;11.970;2023-04-04T07:46:13;78002.88;;;-142.11;100.00
14800;BME280;7491;57.750;11.970;2023-04-04T07:48:40;77980.44;;;-142.11;100.00
14800;BME280;7491;57.750;11.970;2023-04-04T07:51:06;77962.09;;;-142.11;100.00
14800;BME280;7491;57.750;11.970;2023-04-04T07:53:33;77953.94;;;-142.11;100.00
14800;BME280;7491;57.750;11.970;2023-04-04T07:56:00;77939.66;;;-142.11;100.00
14800;BME280;7491;57.750;11.970;2023-04-04T07:58:31;77949.84;;;-142.11;100.00
14800;BME280;7491;57.750;11.970;2023-04-04T08:00:58;77949.84;;;-142.11;100.00
14800;BME280;7491;57.750;11.970;2023-04-04T08:03:25;77939.66;;;-142.11;100.00
14800;BME280;7491;57.750;11.970;2023-04-04T08:05:52;77939.66;;;-142.11;100.00
14800;BME280;7491;57.750;11.970;2023-04-04T08:08:18;77933.53;;;-142.11;100.00
14800;BME280;7491;57.750;11.970;2023-04-04T08:10:45;77898.88;;;-142.11;100.00
14800;BME280;7491;57.750;11.970;2023-04-04T08:13:13;77884.59;;;-142.11;100.00
14800;BME280;7491;57.750;11.970;2023-04-04T08:15:41;77880.50;;;-142.11;100.00
14800;BME280;7491;57.750;11.970;2023-04-04T08:18:09;77905.00;;;-142.11;100.00
14800;BME280;7491;57.750;11.970;2023-04-04T08:20:35;77900.91;;;-142.11;100.00
14800;BME280;7491;57.750;11.970;2023-04-04T08:23:02;77880.50;;;-142.11;100.00
14800;BME280;7491;57.750;11.970;2023-04-04T08:25:28;77868.28;;;-142.11;100.00
14800;BME280;7491;57.750;11.970;2023-04-04T08:27:55;77868.28;;;-142.11;100.00
14800;BME280;7491;57.750;11.970;2023-04-04T08:30:22;77858.09;;;-142.11;100.00
14800;BME280;7491;57.750;11.970;2023-04-04T08:32:50;77856.03;;;-142.11;100.00
14800;BME280;7491;57.750;11.970;2023-04-04T08:35:16;77821.38;;;-142.11;100.00
14800;BME280;7491;57.750;11.970;2023-04-04T08:37:43;77815.25;;;-142.11;100.00
14800;BME280;7491;57.750;11.970;2023-04-04T08:40:10;77794.84;;;-142.11;100.00
14800;BME280;7491;57.750;11.970;2023-04-04T08:42:39;77790.78;;;-142.11;100.00
14800;BME280;7491;57.750;11.970;2023-04-04T08:45:08;77768.34;;;-142.11;100.00
14800;BME280;7491;57.750;11.970;2023-04-04T08:47:37;77780.59;;;-142.11;100.00
14800;BME280;7491;57.750;11.970;2023-04-04T08:50:06;77768.34;;;-142.11;100.00
14800;BME280;7491;57.750;11.970;2023-04-04T08:52:34;77764.25;;;-142.11;100.00
14800;BME280;7491;57.750;11.970;2023-04-04T08:55:03;77764.25;;;-142.11;100.00
14800;BME280;7491;57.750;11.970;2023-04-04T08:57:30;77768.34;;;-142.11;100.00
14800;BME280;7491;57.750;11.970;2023-04-04T08:59:57;77729.59;;;-142.11;100.00
14800;BME280;7491;57.750;11.970;2023-04-04T09:02:28;77711.25;;;-142.11;100.00
14800;BME280;7491;57.750;11.970;2023-04-04T09:04:55;77684.72;;;-142.11;100.00
14800;BME280;7491;57.750;11.970;2023-04-04T09:07:25;77648.03;;;-142.11;100.00
14800;BME280;7491;57.750;11.970;2023-04-04T09:09:52;77652.09;;;-142.11;100.00
14800;BME280;7491;57.750;11.970;2023-04-04T09:12:20;77635.78;;;-142.11;100.00
14800;BME280;7491;57.750;11.970;2023-04-04T09:14:49;77623.53;;;-142.11;100.00
14800;BME280;7491;57.750;11.970;2023-04-04T09:17:16;77615.38;;;-142.11;100.00
14800;BME280;7491;57.750;11.970;2023-04-04T09:19:43;77607.22;;;-142.11;100.00
14800;BME280;7491;57.750;11.970;2023-04-04T09:22:09;77605.19;;;-142.11;100.00
14800;BME280;7491;57.750;11.970;2023-04-04T09:24:39;77590.91;;;-142.11;100.00
14800;BME280;7491;57.750;11.970;2023-04-04T09:27:06;77584.78;;;-142.11;100.00
14800;BME280;7491;57.750;11.970;2023-04-04T09:29:35;77607.22;;;-142.11;100.00
14800;BME280;7491;57.750;11.970;2023-04-04T09:32:02;77578.69;;;-142.11;100.00
14800;BME280;7491;57.750;11.970;2023-04-04T09:34:29;77574.59;;;-142.11;100.00
14800;BME280;7491;57.750;11.970;2023-04-04T09:36:56;77562.38;;;-142.11;100.00
14800;BME280;7491;57.750;11.970;2023-04-04T09:39:24;77554.22;;;-142.11;100.00
14800;BME280;7491;57.750;11.970;2023-04-04T09:41:53;77550.13;;;-142.11;100.00
14800;BME280;7491;57.750;11.970;2023-04-04T09:44:19;77550.13;;;-142.11;100.00
14800;BME280;7491;57.750;11.970;2023-04-04T09:46:47;77521.56;;;-142.11;100.00
14800;BME280;7491;57.750;11.970;2023-04-04T09:49:18;77503.22;;;-142.11;100.00
14800;BME280;7491;57.750;11.970;2023-04-04T09:51:52;77497.09;;;-142.11;100.00
14800;BME280;7491;57.750;11.970;2023-04-04T09:54:22;77480.78;;;-142.11;100.00
14800;BME280;7491;57.750;11.970;2023-04-04T09:56:52;77470.59;;;-142.11;100.00
14800;BME280;7491;57.750;11.970;2023-04-04T09:59:23;77464.47;;;-142.11;100.00
14800;BME280;7491;57.750;11.970;2023-04-04T10:01:50;77462.44;;;-142.11;100.00
14800;BME280;7491;57.750;11.970;2023-04-04T10:04:17;77456.31;;;-142.11;100.00
14800;BME280;7491;57.750;11.970;2023-04-04T10:06:45;77431.84;;;-142.11;100.00
14800;BME280;7491;57.750;11.970;2023-04-04T10:09:14;77433.88;;;-142.11;100.00
14800;BME280;7491;57.750;11.970;2023-04-04T10:11:40;77431.84;;;-142.11;100.00
14800;BME280;7491;57.750;11.970;2023-04-04T10:14:08;77401.25;;;-142.11;100.00
14800;BME280;7491;57.750;11.970;2023-04-04T10:16:42;77391.06;;;-142.11;100.00
14800;BME280;7491;57.750;11.970;2023-04-04T10:19:16;77362.50;;;-142.11;100.00
14800;BME280;7491;57.750;11.970;2023-04-04T10:21:47;77366.59;;;-142.11;100.00
14800;BME280;7491;57.750;11.970;2023-04-04T10:24:17;77354.34;;;-142.11;100.00
14800;BME280;7491;57.750;11.970;2023-04-04T10:26:47;77338.03;;;-142.11;100.00
14800;BME280;7491;57.750;11.970;2023-04-04T10:29:45;77331.94;;;-142.11;100.00
14800;BME280;7491;57.750;11.970;2023-04-04T10:32:41;77293.19;;;-142.11;100.00
14800;BME280;7491;57.750;11.970;2023-04-04T10:35:09;77278.91;;;-142.11;99.84
14800;BME280;7491;57.750;11.970;2023-04-04T10:37:41;77264.63;;;-142.11;98.62
14800;BME280;7491;57.750;11.970;2023-04-04T10:40:12;77258.53;;;-142.11;98.89
14800;BME280;7491;57.750;11.970;2023-04-04T10:42:46;77252.41;;;-142.11;98.42
14800;BME280;7491;57.750;11.970;2023-04-04T10:45:14;77260.56;;;-142.11;94.28
14800;BME280;7491;57.750;11.970;2023-04-04T10:47:43;77246.28;;;-142.11;96.80
14800;BME280;7491;57.750;11.970;2023-04-04T10:50:13;77242.19;;;-142.11;92.03
14800;BME280;7491;57.750;11.970;2023-04-04T10:52:42;77199.38;;;-142.11;93.18
14800;BME280;7491;57.750;11.970;2023-04-04T11:02:13;77168.78;;;-142.11;83.86
14800;BME280;7491;57.750;11.970;2023-04-04T11:12:08;77152.47;;;-142.11;87.23
14800;BME280;7491;57.750;11.970;2023-04-04T11:22:08;77083.16;;;-142.11;76.77
14800;BME280;7491;57.750;11.970;2023-04-04T12:05:28;77070.91;;;-142.11;74.57
14800;BME280;7491;57.750;11.970;2023-04-04T12:28:59;76985.28;;;-142.11;76.34
14800;BME280;7491;57.750;11.970;2023-04-04T12:31:27;77028.09;;;-142.11;74.63
14800;BME280;7491;57.750;11.970;2023-04-04T12:33:55;76999.56;;;-142.11;76.60
14800;BME280;7491;57.750;11.970;2023-04-04T12:36:24;76977.13;;;-142.11;77.16
14800;BME280;7491;57.750;11.970;2023-04-04T12:38:58;76975.09;;;-142.11;77.09
14800;BME280;7491;57.750;11.970;2023-04-04T12:41:25;76954.69;;;-142.11;77.16
14800;BME280;7491;57.750;11.970;2023-04-04T12:44:01;76946.53;;;-142.11;75.90
14800;BME280;7491;57.750;11.970;2023-04-04T12:46:34;76962.84;;;-142.11;74.87
14800;BME280;7491;57.750;11.970;2023-04-04T12:49:02;76973.03;;;-142.11;74.56
14800;BME280;7491;57.750;11.970;2023-04-04T12:51:32;76942.47;;;-142.11;75.73
14800;BME280;7491;57.750;11.970;2023-04-04T12:53:59;76924.13;;;-142.11;75.96
14800;BME280;7491;57.750;11.970;2023-04-04T12:56:26;76907.81;;;-142.11;77.00
14800;BME280;7491;57.750;11.970;2023-04-04T12:59:00;76891.50;;;-142.11;75.11
14800;BME280;7491;57.750;11.970;2023-04-04T13:01:29;76875.19;;;-142.11;75.82
14800;BME280;7491;57.750;11.970;2023-04-04T13:03:56;76887.41;;;-142.11;75.61
14800;BME280;7491;57.750;11.970;2023-04-04T13:06:27;76903.72;;;-142.11;74.52
14800;BME280;7491;57.750;11.970;2023-04-04T13:08:54;76905.75;;;-142.11;74.42
14800;BME280;7491;57.750;11.970;2023-04-04T13:11:21;76911.88;;;-142.11;76.34
14800;BME280;7491;57.750;11.970;2023-04-04T13:14:00;76950.63;;;-142.11;75.85
14800;BME280;7491;57.750;11.970;2023-04-04T13:16:29;76960.81;;;-142.11;76.12
14800;BME280;7491;57.750;11.970;2023-04-04T13:18:56;76975.09;;;-142.11;75.68
14800;BME280;7491;57.750;11.970;2023-04-04T13:21:23;76975.09;;;-142.11;75.98
14800;BME280;7491;57.750;11.970;2023-04-04T13:23:50;76975.09;;;-142.11;76.64
14800;BME280;7491;57.750;11.970;2023-04-04T13:26:17;76964.88;;;-142.11;76.20
14800;BME280;7491;57.750;11.970;2023-04-04T13:28:43;76924.13;;;-142.11;77.59
14800;BME280;7491;57.750;11.970;2023-04-04T13:31:12;76920.03;;;-142.11;76.38
14800;BME280;7491;57.750;11.970;2023-04-04T13:33:40;76911.88;;;-142.11;75.38
14800;BME280;7491;57.750;11.970;2023-04-04T13:36:07;76915.97;;;-142.11;77.40
14800;BME280;7491;57.750;11.970;2023-04-04T13:38:34;76899.66;;;-142.11;75.94
14800;BME280;7491;57.750;11.970;2023-04-04T13:41:01;76887.41;;;-142.11;75.36
14800;BME280;7491;57.750;11.970;2023-04-04T13:43:28;76860.91;;;-142.11;75.63
14800;BME280;7491;57.750;11.970;2023-04-04T13:45:54;76901.69;;;-142.11;74.72
14800;BME280;7491;57.750;11.970;2023-04-04T13:48:23;76891.50;;;-142.11;75.35
14800;BME280;7491;57.750;11.970;2023-04-04T13:50:50;76891.50;;;-142.11;76.36
14800;BME280;7491;57.750;11.970;2023-04-04T13:53:19;76899.66;;;-142.11;75.44
14800;BME280;7491;57.750;11.970;2023-04-04T13:55:46;76903.72;;;-142.11;75.55
14800;BME280;7491;57.750;11.970;2023-04-04T13:58:12;76895.56;;;-142.11;76.52